Time;durP1;ratioP1;P1;durP2;ratioP2;P2;SDS_P1;SDS_P2;PMS_P1;PMS_P2;Temp;Humidity;BMP_temperature;BMP_pressure;BME280_temperature;BME280_humidity;BME280_pressure;Samples;Min_cycle;Max_cycle;Signal;HPM_P1;HPM_P2
2022/10/15 00:02:09;;;;;;;48.20;7.90;;;;;;;14.72;100.00;97139.28;5004284;28;20097;-60
2022/10/15 00:04:35;;;;;;;29.27;5.88;;;;;;;14.86;100.00;97134.81;5007984;28;20037;-60
2022/10/15 00:07:01;;;;;;;34.08;6.97;;;;;;;14.77;100.00;97131.88;5007671;28;20033;-56
2022/10/15 00:09:26;;;;;;;30.45;6.80;;;;;;;14.67;100.00;97136.13;5009831;28;20029;-56
2022/10/15 00:11:51;;;;;;;36.72;7.30;;;;;;;14.86;100.00;97129.56;5009982;28;20038;-57
2022/10/15 00:14:17;;;;;;;31.40;6.38;;;;;;;14.98;100.00;97124.25;5009662;28;20029;-56
2022/10/15 00:16:42;;;;;;;28.13;6.18;;;;;;;15.19;100.00;97121.00;5008935;28;20041;-56
2022/10/15 00:19:09;;;;;;;40.83;7.40;;;;;;;15.01;100.00;97124.00;5010916;28;20410;-59
2022/10/15 00:21:34;;;;;;;37.00;7.15;;;;;;;15.09;100.00;97120.84;5010814;28;20517;-57
2022/10/15 00:24:00;;;;;;;31.05;6.93;;;;;;;14.97;100.00;97121.72;5010387;28;20025;-56
2022/10/15 00:26:28;;;;;;;26.23;5.68;;;;;;;14.60;100.00;97124.38;5011483;28;20046;-56
2022/10/15 00:28:56;;;;;;;23.75;5.78;;;;;;;14.86;100.00;97129.56;5007892;28;20604;-56
2022/10/15 00:31:23;;;;;;;36.70;6.50;;;;;;;15.00;100.00;97118.91;5012614;28;20095;-58
2022/10/15 00:33:50;;;;;;;27.65;5.63;;;;;;;14.92;100.00;97115.97;5009391;28;20476;-57
2022/10/15 00:36:18;;;;;;;38.00;6.57;;;;;;;15.12;100.00;97114.53;5011441;28;20137;-58
2022/10/15 00:38:44;;;;;;;27.40;5.82;;;;;;;14.98;100.00;97110.25;5011365;28;20033;-58
2022/10/15 00:41:14;;;;;;;28.65;5.82;;;;;;;14.98;100.00;97103.25;5011044;28;20122;-59
2022/10/15 00:43:41;;;;;;;31.85;5.75;;;;;;;14.91;100.00;97103.81;5014700;28;20108;-58
2022/10/15 00:46:16;;;;;;;44.58;6.68;;;;;;;14.85;100.00;97097.22;5014424;28;20037;-59
2022/10/15 00:48:42;;;;;;;35.17;6.00;;;;;;;15.06;100.00;97099.22;5015075;28;20025;-58
2022/10/15 00:51:08;;;;;;;26.75;5.35;;;;;;;14.55;100.00;97101.06;5014561;28;20052;-59
2022/10/15 00:53:34;;;;;;;37.80;6.90;;;;;;;14.93;100.00;97089.59;5016907;28;20033;-59
2022/10/15 00:56:00;;;;;;;28.73;5.70;;;;;;;14.83;100.00;97089.44;5011107;28;20034;-57
2022/10/15 00:58:30;;;;;;;32.03;6.35;;;;;;;14.87;100.00;97078.72;5009995;28;20116;-58
2022/10/15 01:00:56;;;;;;;22.90;5.22;;;;;;;14.67;100.00;97088.03;5014882;28;20041;-59
2022/10/15 01:03:22;;;;;;;24.98;5.18;;;;;;;14.75;100.00;97081.28;5013890;28;20037;-58
2022/10/15 01:05:50;;;;;;;24.33;5.10;;;;;;;14.62;100.00;97080.50;5013257;28;20034;-57
2022/10/15 01:08:16;;;;;;;27.40;5.15;;;;;;;14.54;100.00;97067.91;5014651;28;20048;-58
2022/10/15 01:11:31;;;;;;;33.20;6.00;;;;;;;14.70;100.00;97059.78;5013650;28;20072;-57
2022/10/15 01:13:59;;;;;;;33.08;5.28;;;;;;;14.53;100.00;97057.50;4996032;28;20038;-60
2022/10/15 01:16:32;;;;;;;28.77;5.53;;;;;;;14.79;100.00;97056.47;5014273;28;20038;-60
2022/10/15 01:19:06;;;;;;;32.50;5.63;;;;;;;14.77;100.00;97053.13;5012392;28;20033;-57
2022/10/15 01:21:52;;;;;;;27.92;5.25;;;;;;;14.68;100.00;97048.56;5014164;28;20037;-60
2022/10/15 01:24:44;;;;;;;25.02;4.40;;;;;;;14.62;100.00;97056.88;4999596;28;20038;-59
2022/10/15 01:27:29;;;;;;;30.63;5.38;;;;;;;14.68;100.00;97053.81;5012971;28;20064;-57
2022/10/15 01:30:20;;;;;;;39.53;5.90;;;;;;;14.71;100.00;97048.34;5013467;28;20026;-57
2022/10/15 01:33:09;;;;;;;28.98;5.28;;;;;;;14.74;100.00;97049.88;5011390;28;20057;-58
2022/10/15 01:36:01;;;;;;;26.10;5.05;;;;;;;14.62;100.00;97049.84;5012740;28;20045;-57
2022/10/15 01:38:48;;;;;;;32.97;5.40;;;;;;;14.81;100.00;97044.09;5010582;28;20068;-59
2022/10/15 01:41:36;;;;;;;25.95;4.72;;;;;;;14.76;100.00;97046.22;5011002;28;20048;-58
2022/10/15 01:44:06;;;;;;;38.20;5.93;;;;;;;14.80;100.00;97039.78;5014615;28;20096;-57
2022/10/15 01:46:40;;;;;;;32.53;5.55;;;;;;;14.62;100.00;97034.09;5013513;28;20559;-59
2022/10/15 01:49:10;;;;;;;37.42;5.65;;;;;;;14.91;100.00;97038.19;5014882;28;20029;-59
2022/10/15 01:51:38;;;;;;;29.45;4.75;;;;;;;14.79;100.00;97038.09;5013217;28;20045;-59
2022/10/15 01:54:06;;;;;;;39.67;5.45;;;;;;;14.82;100.00;97031.81;5010399;28;20029;-59
2022/10/15 01:56:36;;;;;;;20.42;4.13;;;;;;;14.73;100.00;97022.81;5012939;28;20354;-60
2022/10/15 01:59:03;;;;;;;27.10;4.57;;;;;;;14.51;100.00;97022.69;5012980;28;20056;-57
2022/10/15 02:01:28;;;;;;;29.48;4.85;;;;;;;14.70;100.00;97024.81;5011994;28;20583;-57
2022/10/15 02:03:54;;;;;;;26.48;4.30;;;;;;;14.30;100.00;97018.03;5012785;28;20597;-57
2022/10/15 02:06:42;;;;;;;34.95;5.15;;;;;;;14.57;100.00;97020.47;5011053;28;20107;-58
2022/10/15 02:09:11;;;;;;;26.10;4.43;;;;;;;14.75;100.00;97007.78;5014843;28;20026;-60
2022/10/15 02:12:15;;;;;;;27.00;4.75;;;;;;;14.88;100.00;97005.09;5013941;28;20072;-59
2022/10/15 02:15:03;;;;;;;37.15;4.63;;;;;;;14.86;100.00;97011.41;5013674;28;20025;-58
2022/10/15 02:17:55;;;;;;;34.22;5.43;;;;;;;15.16;100.00;97011.75;5003080;28;20056;-57
2022/10/15 02:20:40;;;;;;;36.65;5.45;;;;;;;14.78;100.00;97007.56;5011102;28;20029;-57
2022/10/15 02:23:14;;;;;;;26.08;4.30;;;;;;;14.81;100.00;97007.34;5012176;28;20109;-58
2022/10/15 02:25:41;;;;;;;28.95;4.25;;;;;;;14.79;100.00;97001.34;5014068;28;20045;-58
2022/10/15 02:28:10;;;;;;;25.40;4.40;;;;;;;14.79;100.00;97001.34;5016242;28;20194;-59
2022/10/15 02:30:37;;;;;;;30.80;4.45;;;;;;;14.57;100.00;97001.22;5014908;28;20654;-57
2022/10/15 02:33:03;;;;;;;25.00;4.60;;;;;;;14.84;100.00;96988.72;5013028;28;20079;-57
2022/10/15 02:35:29;;;;;;;29.17;4.28;;;;;;;14.76;100.00;96991.09;5014921;28;20035;-57
2022/10/15 02:37:59;;;;;;;36.60;4.97;;;;;;;14.63;100.00;96988.53;5014075;28;20026;-59
2022/10/15 02:40:27;;;;;;;26.98;4.22;;;;;;;14.63;100.00;96998.19;5010700;28;20034;-57
2022/10/15 02:42:53;;;;;;;19.80;3.47;;;;;;;14.50;100.00;97000.00;5012650;28;20084;-57
2022/10/15 02:45:19;;;;;;;27.92;4.38;;;;;;;14.79;100.00;96985.59;5012545;28;20030;-57
2022/10/15 02:47:45;;;;;;;31.35;5.05;;;;;;;15.10;100.00;96979.84;5014139;28;20492;-59
2022/10/15 02:50:10;;;;;;;28.33;4.30;;;;;;;14.75;100.00;96984.16;5011844;28;20029;-57
2022/10/15 02:52:35;;;;;;;33.97;4.68;;;;;;;14.56;100.00;96976.78;5009658;28;20053;-58
2022/10/15 02:55:01;;;;;;;22.13;3.50;;;;;;;14.60;100.00;96977.44;5013375;28;20136;-57
2022/10/15 02:57:26;;;;;;;23.10;3.47;;;;;;;14.57;100.00;96972.38;5012076;28;20029;-57
2022/10/15 02:59:51;;;;;;;44.92;5.55;;;;;;;14.63;100.00;96966.69;5010472;28;20133;-58
2022/10/15 03:02:17;;;;;;;24.83;3.78;;;;;;;14.74;100.00;96976.41;5009443;28;20072;-57
2022/10/15 03:04:42;;;;;;;27.23;4.15;;;;;;;15.00;100.00;96977.09;5008378;28;20069;-58
2022/10/15 03:07:07;;;;;;;23.00;3.67;;;;;;;14.92;100.00;96971.56;5011853;28;20045;-58
2022/10/15 03:09:33;;;;;;;23.73;3.78;;;;;;;14.74;100.00;96973.78;5010908;28;20039;-57
2022/10/15 03:11:58;;;;;;;28.38;4.13;;;;;;;14.93;100.00;96970.63;5010349;28;20068;-58
2022/10/15 03:14:23;;;;;;;25.42;3.90;;;;;;;14.80;100.00;96961.03;5011838;28;20026;-60
2022/10/15 03:16:49;;;;;;;24.08;3.78;;;;;;;14.81;100.00;96964.50;5011903;28;20040;-59
2022/10/15 03:19:14;;;;;;;27.73;3.75;;;;;;;14.56;100.00;96973.34;5012269;28;20033;-59
2022/10/15 03:21:39;;;;;;;27.75;4.07;;;;;;;14.72;100.00;96960.78;5010779;28;20492;-57
2022/10/15 03:24:05;;;;;;;32.47;4.13;;;;;;;14.49;100.00;96961.63;5010596;28;20135;-59
2022/10/15 03:26:30;;;;;;;19.27;3.10;;;;;;;14.65;100.00;96956.94;5011037;28;20048;-57
2022/10/15 03:28:56;;;;;;;24.67;3.85;;;;;;;14.82;100.00;96961.75;5014157;28;20026;-58
2022/10/15 03:31:21;;;;;;;23.15;3.50;;;;;;;14.90;100.00;96962.97;5010095;28;20679;-57
2022/10/15 03:33:46;;;;;;;24.10;3.42;;;;;;;15.08;100.00;96960.75;5013651;28;20037;-58
2022/10/15 03:36:12;;;;;;;36.17;4.78;;;;;;;14.78;100.00;96960.31;5013018;28;20503;-60
2022/10/15 03:38:37;;;;;;;21.55;3.15;;;;;;;14.84;100.00;96959.84;5012488;28;20017;-58
2022/10/15 03:41:03;;;;;;;25.42;4.03;;;;;;;14.95;100.00;96960.84;5010314;28;20037;-57
2022/10/15 03:43:28;;;;;;;25.13;3.65;;;;;;;18.33;100.00;96955.22;5012595;28;20056;-61
2022/10/15 03:45:53;;;;;;;27.48;3.88;;;;;;;26.26;100.00;97086.19;5013157;28;20061;-58
2022/10/15 03:48:19;;;;;;;43.47;5.43;;;;;;;24.26;100.00;97087.88;5013157;28;20057;-60
2022/10/15 03:50:45;;;;;;;28.15;3.65;;;;;;;23.84;100.00;97086.34;5007650;28;20037;-58
2022/10/15 03:53:11;;;;;;;29.58;4.22;;;;;;;24.14;100.00;97091.94;5010830;28;20487;-60
2022/10/15 03:55:36;;;;;;;29.88;3.78;;;;;;;23.52;100.00;97090.66;5011480;28;20095;-57
2022/10/15 03:58:02;;;;;;;26.30;3.70;;;;;;;24.09;100.00;97088.94;5012835;28;20124;-57
2022/10/15 04:00:27;;;;;;;40.88;4.90;;;;;;;23.66;100.00;97087.31;5011267;28;20038;-56
2022/10/15 04:02:52;;;;;;;29.23;3.85;;;;;;;23.75;100.00;97084.66;5013182;28;20041;-57
2022/10/15 04:05:18;;;;;;;40.47;4.63;;;;;;;23.15;100.00;97077.84;5013326;28;20574;-59
2022/10/15 04:07:43;;;;;;;34.97;4.50;;;;;;;23.31;100.00;97091.16;5011261;28;20025;-58
2022/10/15 04:10:09;;;;;;;33.75;4.20;;;;;;;24.12;100.00;97091.28;5011904;28;20108;-59
2022/10/15 04:12:35;;;;;;;37.72;4.53;;;;;;;23.41;100.00;97083.81;5009594;28;20038;-57
2022/10/15 04:15:00;;;;;;;25.23;3.70;;;;;;;23.61;100.00;97081.66;5012543;28;20025;-58
2022/10/15 04:17:25;;;;;;;28.25;3.72;;;;;;;23.89;100.00;97089.31;5011916;28;20132;-59
2022/10/15 04:19:51;;;;;;;41.03;4.97;;;;;;;23.44;100.00;97082.69;5017100;28;20030;-58
2022/10/15 04:22:16;;;;;;;29.77;3.95;;;;;;;23.09;100.00;97082.00;5015854;28;20047;-58
2022/10/15 04:24:41;;;;;;;39.55;5.00;;;;;;;24.41;100.00;97090.69;5016251;28;20030;-57
2022/10/15 04:27:07;;;;;;;33.92;4.28;;;;;;;23.63;100.00;97086.81;5014052;28;20030;-57
2022/10/15 04:29:32;;;;;;;31.60;4.20;;;;;;;23.90;100.00;97083.00;5012842;28;20029;-58
2022/10/15 04:31:58;;;;;;;28.55;3.50;;;;;;;24.21;100.00;97090.25;5012996;28;20038;-57
2022/10/15 04:34:24;;;;;;;32.35;4.10;;;;;;;23.44;100.00;97088.00;5013410;28;20025;-58
2022/10/15 04:36:49;;;;;;;50.10;5.35;;;;;;;24.39;100.00;97090.00;5012746;28;20132;-57
2022/10/15 04:39:14;;;;;;;28.58;3.40;;;;;;;23.86;100.00;97089.66;5016986;28;20057;-59
2022/10/15 04:41:40;;;;;;;31.45;4.13;;;;;;;23.58;100.00;97090.00;5015782;28;20041;-57
2022/10/15 04:44:05;;;;;;;31.30;4.22;;;;;;;22.95;100.00;97087.91;5012867;28;20030;-58
2022/10/15 04:46:31;;;;;;;24.45;3.83;;;;;;;23.55;100.00;97085.00;5014913;28;20045;-57
2022/10/15 04:48:57;;;;;;;35.65;4.18;;;;;;;24.00;100.00;97099.59;5015626;28;20151;-60
2022/10/15 04:51:24;;;;;;;28.95;3.80;;;;;;;23.53;100.00;97092.31;5013645;28;20594;-57
2022/10/15 04:53:49;;;;;;;32.67;3.78;;;;;;;22.97;100.00;97099.22;5013598;28;20028;-57
2022/10/15 04:56:19;;;;;;;81.30;5.75;;;;;;;45.01;32.75;97117.31;5016515;28;20038;-59
2022/10/15 04:58:46;;;;;;;40.13;4.35;;;;;;;33.47;55.94;97113.06;5011449;28;20615;-57
2022/10/15 05:01:14;;;;;;;39.42;4.60;;;;;;;33.76;55.71;97111.38;5013314;28;20060;-59
2022/10/15 05:03:41;;;;;;;38.15;4.43;;;;;;;32.76;57.64;97112.72;5014302;28;20033;-58
2022/10/15 05:06:10;;;;;;;55.55;6.18;;;;;;;33.55;59.22;97103.78;5013880;28;20458;-57
2022/10/15 05:08:36;;;;;;;39.03;4.80;;;;;;;35.63;52.26;97112.31;5013234;28;20040;-57
2022/10/15 05:11:03;;;;;;;43.20;4.65;;;;;;;33.59;55.78;97105.78;5014705;28;20041;-57
2022/10/15 05:13:30;;;;;;;41.63;4.88;;;;;;;33.41;59.20;97097.75;5012325;28;20056;-57
2022/10/15 05:15:55;;;;;;;95.75;9.95;;;;;;;33.85;59.03;97092.91;5012449;28;20038;-60
2022/10/15 05:18:21;;;;;;;54.15;5.32;;;;;;;33.11;55.47;97103.97;5014830;28;20032;-60
2022/10/15 05:20:46;;;;;;;37.47;4.75;;;;;;;33.77;55.37;97106.81;5011375;28;20034;-57
2022/10/15 05:23:12;;;;;;;36.30;5.00;;;;;;;32.68;62.78;97102.25;5014118;28;20026;-57
2022/10/15 05:25:37;;;;;;;34.22;4.13;;;;;;;31.61;64.88;97105.09;5014416;28;20106;-57
2022/10/15 05:28:03;;;;;;;33.90;4.10;;;;;;;32.92;59.35;97111.31;5015996;28;20868;-58
2022/10/15 05:30:28;;;;;;;43.88;5.22;;;;;;;32.14;62.08;97110.06;5013834;28;20529;-58
2022/10/15 05:32:54;;;;;;;36.25;4.22;;;;;;;33.97;56.53;97112.69;5015337;28;20022;-57
2022/10/15 05:35:20;;;;;;;39.10;4.68;;;;;;;32.97;59.14;97119.53;5011604;28;20026;-58
2022/10/15 05:37:46;;;;;;;35.65;4.38;;;;;;;32.91;59.16;97125.03;5013981;28;20029;-58
2022/10/15 05:40:11;;;;;;;32.75;4.25;;;;;;;33.12;57.66;97121.88;5013564;28;20037;-56
2022/10/15 05:42:37;;;;;;;44.38;5.07;;;;;;;32.75;57.54;97116.47;5011379;28;20028;-57
2022/10/15 05:45:02;;;;;;;33.85;4.20;;;;;;;33.13;58.19;97118.09;5011896;28;20037;-58
2022/10/15 05:47:28;;;;;;;37.33;4.70;;;;;;;33.01;57.68;97122.59;5012166;28;20037;-57
2022/10/15 05:49:53;;;;;;;52.97;5.90;;;;;;;32.49;58.52;97135.66;5012038;28;20041;-58
2022/10/15 05:52:19;;;;;;;38.45;4.60;;;;;;;33.45;56.37;97134.06;5012542;28;20045;-57
2022/10/15 05:54:44;;;;;;;47.30;5.57;;;;;;;33.33;57.39;97133.22;5012425;28;20025;-58
2022/10/15 05:57:10;;;;;;;33.05;4.07;;;;;;;32.06;58.78;97129.22;5012191;28;20320;-58
2022/10/15 05:59:35;;;;;;;40.95;4.72;;;;;;;31.54;60.85;97134.81;5010023;28;20115;-57
2022/10/15 06:02:00;;;;;;;32.58;3.92;;;;;;;32.64;58.47;97138.84;5009563;28;20081;-57
2022/10/15 06:04:26;;;;;;;35.00;4.13;;;;;;;33.19;59.34;97136.09;5008988;28;20025;-57
2022/10/15 06:06:51;;;;;;;53.63;5.55;;;;;;;33.15;56.83;97139.50;5011338;28;20076;-56
2022/10/15 06:09:16;;;;;;;36.67;4.22;;;;;;;32.54;61.55;97141.22;5015663;28;20029;-58
2022/10/15 06:11:42;;;;;;;40.67;4.85;;;;;;;33.35;59.08;97139.22;5013076;28;20121;-59
2022/10/15 06:14:07;;;;;;;36.80;4.35;;;;;;;33.24;58.30;97140.81;5013921;28;20032;-56
2022/10/15 06:16:33;;;;;;;33.08;4.43;;;;;;;34.23;55.08;97137.66;5014640;28;20046;-57
2022/10/15 06:18:58;;;;;;;38.08;4.53;;;;;;;32.99;56.00;97143.59;5011585;28;20029;-60
2022/10/15 06:21:24;;;;;;;37.47;4.63;;;;;;;33.03;58.42;97147.50;5014408;28;20033;-58
2022/10/15 06:23:49;;;;;;;45.03;5.13;;;;;;;33.44;58.19;97156.75;5012696;28;20029;-57
2022/10/15 06:26:14;;;;;;;34.63;4.18;;;;;;;32.16;63.16;97150.28;5013282;28;20085;-57
2022/10/15 06:28:40;;;;;;;37.08;4.25;;;;;;;33.70;55.20;97155.56;5015324;28;20068;-58
2022/10/15 06:31:06;;;;;;;38.38;4.43;;;;;;;33.05;57.83;97164.31;5012655;28;20037;-57
2022/10/15 06:33:33;;;;;;;28.35;3.53;;;;;;;33.31;56.20;97167.75;5010252;28;20036;-58
2022/10/15 06:36:07;;;;;;;34.33;4.30;;;;;;;33.25;56.10;97169.50;5016315;28;20384;-58
2022/10/15 06:38:32;;;;;;;39.47;4.90;;;;;;;32.76;59.12;97174.03;5013698;28;20025;-58
2022/10/15 06:40:58;;;;;;;34.13;4.28;;;;;;;34.18;55.37;97172.72;5012866;28;20034;-60
2022/10/15 06:43:23;;;;;;;35.28;4.15;;;;;;;34.93;51.20;97185.53;5012624;28;20034;-56
2022/10/15 06:45:49;;;;;;;37.60;4.43;;;;;;;35.44;49.81;97185.75;5012638;28;20124;-57
2022/10/15 06:48:14;;;;;;;41.92;4.80;;;;;;;30.27;74.64;97174.75;5012547;28;20029;-57
2022/10/15 06:50:40;;;;;;;35.92;4.38;;;;;;;31.60;67.31;97182.44;5012405;28;20607;-58
2022/10/15 06:53:05;;;;;;;28.95;3.80;;;;;;;31.07;70.70;97188.06;5007754;28;20022;-57
2022/10/15 06:55:31;;;;;;;35.70;4.45;;;;;;;30.04;77.63;97184.06;5009901;28;20061;-57
2022/10/15 06:57:57;;;;;;;29.88;4.00;;;;;;;31.05;75.72;97193.66;5011360;28;20038;-56
2022/10/15 07:00:23;;;;;;;42.70;5.25;;;;;;;31.35;70.12;97192.28;5011799;28;20033;-57
2022/10/15 07:02:49;;;;;;;39.88;4.88;;;;;;;30.90;73.56;97195.78;5004527;28;20025;-58
2022/10/15 07:05:15;;;;;;;28.20;4.15;;;;;;;31.74;69.55;97201.22;5011123;28;20039;-60
2022/10/15 07:07:41;;;;;;;28.42;4.60;;;;;;;30.92;72.77;97199.91;5014592;28;20026;-58
2022/10/15 07:10:07;;;;;;;33.22;4.35;;;;;;;30.22;83.13;97201.44;5014660;28;20088;-59
2022/10/15 07:12:33;;;;;;;46.85;5.63;;;;;;;31.32;75.34;97209.69;5014855;28;20079;-60
2022/10/15 07:14:58;;;;;;;30.60;4.75;;;;;;;32.35;68.08;97205.97;5012812;28;20033;-59
2022/10/15 07:17:24;;;;;;;29.17;4.78;;;;;;;31.70;71.02;97211.59;5013709;28;20446;-59
2022/10/15 07:19:49;;;;;;;31.50;4.60;;;;;;;30.87;75.00;97207.78;5014592;28;20088;-61
2022/10/15 07:22:14;;;;;;;28.33;4.40;;;;;;;29.78;86.01;97209.91;5009792;28;20038;-58
2022/10/15 07:24:40;;;;;;;41.20;5.68;;;;;;;30.04;85.23;97223.56;5012705;28;20153;-58
2022/10/15 07:27:05;;;;;;;31.75;4.50;;;;;;;29.86;89.86;97218.78;5013422;28;20140;-60
2022/10/15 07:29:31;;;;;;;28.77;4.30;;;;;;;30.65;84.75;97214.47;5013969;28;20454;-58
2022/10/15 07:31:56;;;;;;;26.20;3.72;;;;;;;30.02;92.20;97218.41;5012797;28;20026;-60
2022/10/15 07:34:22;;;;;;;27.98;4.20;;;;;;;30.35;87.00;97225.69;5012953;28;20055;-58
2022/10/15 07:36:47;;;;;;;43.13;5.25;;;;;;;30.42;89.11;97221.13;5012387;28;20034;-59
2022/10/15 07:39:13;;;;;;;29.02;3.97;;;;;;;30.43;85.93;97227.31;5012476;28;20017;-60
2022/10/15 07:41:38;;;;;;;27.45;3.78;;;;;;;30.13;91.34;97228.53;5014970;28;20052;-58
2022/10/15 07:44:04;;;;;;;25.08;3.92;;;;;;;30.10;90.87;97228.94;5013953;28;20817;-58
2022/10/15 07:46:29;;;;;;;28.35;4.00;;;;;;;29.94;94.17;97229.34;5013687;28;20099;-57
2022/10/15 07:48:55;;;;;;;36.38;4.45;;;;;;;29.87;92.69;97229.34;5015750;28;20025;-58
2022/10/15 07:51:20;;;;;;;22.88;3.30;;;;;;;29.64;95.16;97229.66;5015149;28;20041;-58
2022/10/15 07:53:46;;;;;;;36.20;4.35;;;;;;;29.87;94.32;97239.25;5013459;28;20128;-57
2022/10/15 07:56:12;;;;;;;31.35;4.15;;;;;;;29.70;99.39;97242.31;5011988;28;20150;-58
2022/10/15 07:58:38;;;;;;;21.63;3.60;;;;;;;30.18;90.51;97247.56;5012608;28;20025;-57
2022/10/15 08:01:05;;;;;;;32.35;4.68;;;;;;;30.83;86.49;97255.00;5011448;28;20045;-60
2022/10/15 08:03:31;;;;;;;22.05;3.35;;;;;;;29.73;97.66;97249.94;5014052;28;20034;-58
2022/10/15 08:06:01;;;;;;;27.65;4.10;;;;;;;31.03;89.20;97256.88;5015146;28;20049;-58
2022/10/15 08:08:26;;;;;;;22.85;3.85;;;;;;;31.24;83.78;97264.66;5015221;28;20362;-60
2022/10/15 08:10:52;;;;;;;29.52;4.13;;;;;;;30.75;90.48;97264.13;5013537;28;20041;-60
2022/10/15 08:13:18;;;;;;;27.50;3.75;;;;;;;29.97;91.90;97263.88;5013908;28;20024;-58
2022/10/15 08:15:43;;;;;;;27.85;4.03;;;;;;;30.46;90.59;97265.41;5012504;28;20033;-60
2022/10/15 08:18:09;;;;;;;40.58;4.80;;;;;;;31.06;88.95;97269.88;5010807;28;20034;-60
2022/10/15 08:20:38;;;;;;;25.40;3.65;;;;;;;30.64;91.09;97280.91;5013250;28;20508;-60
2022/10/15 08:23:05;;;;;;;27.92;4.07;;;;;;;30.17;100.00;97272.81;5013425;28;20030;-60
2022/10/15 08:25:31;;;;;;;24.63;3.53;;;;;;;29.22;100.00;97274.56;5011729;28;20053;-58
2022/10/15 08:27:57;;;;;;;26.85;3.40;;;;;;;29.02;100.00;97271.75;5014160;28;20021;-58
2022/10/15 08:30:22;;;;;;;38.35;4.55;;;;;;;29.91;100.00;97278.16;5014956;28;20167;-59
2022/10/15 08:32:47;;;;;;;25.88;3.72;;;;;;;29.07;100.00;97279.22;5015876;28;20014;-60
2022/10/15 08:35:13;;;;;;;32.83;4.20;;;;;;;29.87;100.00;97290.31;5013027;28;20614;-58
2022/10/15 08:37:38;;;;;;;24.45;3.50;;;;;;;30.07;100.00;97290.38;5012494;28;20034;-58
2022/10/15 08:40:04;;;;;;;43.35;5.15;;;;;;;31.11;95.67;97288.94;5012090;28;20032;-58
2022/10/15 08:42:45;;;;;;;38.03;5.18;;;;;;;29.59;100.00;97293.94;5011458;28;20022;-58
2022/10/15 08:45:15;;;;;;;22.80;3.92;;;;;;;29.42;100.00;97299.66;5009671;28;20017;-58
2022/10/15 08:48:11;;;;;;;27.85;3.60;;;;;;;29.78;100.00;97301.28;5014715;28;20040;-58
2022/10/15 08:50:39;;;;;;;41.22;4.75;;;;;;;29.86;100.00;97312.88;5012602;28;20041;-58
2022/10/15 08:53:04;;;;;;;27.35;3.80;;;;;;;30.17;100.00;97312.31;5012742;28;20107;-59
2022/10/15 08:55:42;;;;;;;29.83;4.15;;;;;;;30.21;100.00;97318.13;5012470;28;20467;-61
2022/10/15 08:58:40;;;;;;;25.02;3.30;;;;;;;30.23;99.49;97324.13;5014687;28;20033;-57
2022/10/15 09:01:11;;;;;;;25.88;3.80;;;;;;;30.94;95.86;97327.06;5013922;28;20534;-57
2022/10/15 09:04:18;;;;;;;39.10;4.68;;;;;;;31.03;95.25;97330.38;5015889;28;20514;-58
2022/10/15 09:06:45;;;;;;;35.58;4.38;;;;;;;29.67;100.00;97328.69;4995654;28;20141;-58
2022/10/15 09:09:14;;;;;;;28.40;3.78;;;;;;;30.67;100.00;97326.25;5018086;28;20037;-61
2022/10/15 09:12:16;;;;;;;34.40;4.45;;;;;;;29.93;100.00;97329.84;5016519;28;20045;-57
2022/10/15 09:14:45;;;;;;;33.13;4.30;;;;;;;29.48;100.00;97330.28;5018293;28;20499;-60
2022/10/15 09:17:21;;;;;;;24.80;3.45;;;;;;;30.34;100.00;97328.91;5015820;28;20065;-59
2022/10/15 09:19:51;;;;;;;41.25;5.00;;;;;;;31.19;96.83;97336.34;5015601;28;20038;-57
2022/10/15 09:22:21;;;;;;;22.50;3.15;;;;;;;30.86;95.07;97335.34;5018312;28;20084;-59
2022/10/15 09:24:46;;;;;;;26.95;3.60;;;;;;;31.18;99.37;97340.91;5018399;28;20057;-57
2022/10/15 09:27:19;;;;;;;24.85;3.42;;;;;;;30.77;100.00;97342.00;5017865;28;20393;-57
2022/10/15 09:29:57;;;;;;;34.25;4.22;;;;;;;31.22;97.89;97339.47;5015107;28;20908;-57
2022/10/15 09:32:30;;;;;;;23.02;3.38;;;;;;;31.05;94.61;97339.09;5013698;28;20052;-60
2022/10/15 09:35:14;;;;;;;36.38;4.30;;;;;;;31.89;92.35;97350.88;5019466;28;20029;-59
2022/10/15 09:37:42;;;;;;;22.80;3.35;;;;;;;32.00;92.84;97352.06;5015163;28;20081;-57
2022/10/15 09:40:27;;;;;;;30.63;4.03;;;;;;;31.98;90.52;97356.84;5016801;28;20026;-57
2022/10/15 09:42:55;;;;;;;30.75;3.45;;;;;;;31.97;90.61;97357.88;5017554;28;20034;-59
2022/10/15 09:45:23;;;;;;;25.40;3.42;;;;;;;32.86;84.74;97355.22;5015208;28;20021;-59
2022/10/15 09:47:48;;;;;;;24.45;3.10;;;;;;;32.79;87.96;97363.41;5012500;28;20044;-58
2022/10/15 09:50:14;;;;;;;35.47;4.15;;;;;;;31.68;90.89;97362.75;5013789;28;20029;-62
2022/10/15 09:53:01;;;;;;;16.77;2.70;;;;;;;23.89;100.00;97352.94;5016568;28;20104;-58
2022/10/15 09:56:11;;;;;;;22.45;3.30;;;;;;;23.89;100.00;97358.28;5016267;28;20033;-58
2022/10/15 09:58:47;;;;;;;18.63;2.95;;;;;;;24.03;100.00;97362.97;4949541;28;20039;-59
2022/10/15 10:01:20;;;;;;;29.33;3.75;;;;;;;23.78;100.00;97363.88;4950226;28;20054;-59
2022/10/15 10:03:52;;;;;;;22.08;3.22;;;;;;;23.64;100.00;97368.84;4976917;28;20053;-60
2022/10/15 10:06:17;;;;;;;26.33;3.53;;;;;;;23.63;100.00;97377.78;5012116;28;20025;-60
2022/10/15 10:08:48;;;;;;;22.13;3.03;;;;;;;24.08;100.00;97377.63;5015788;28;20045;-61
2022/10/15 10:11:14;;;;;;;20.60;4.63;;;;;;;23.65;100.00;97377.66;5014359;28;20071;-58
2022/10/15 10:13:48;;;;;;;25.50;4.20;;;;;;;23.74;100.00;97382.00;5015119;28;20403;-58
2022/10/15 10:16:17;;;;;;;23.35;3.22;;;;;;;24.16;100.00;97383.81;5015549;28;20485;-57
2022/10/15 10:18:59;;;;;;;21.63;3.35;;;;;;;23.66;100.00;97388.13;5016207;28;20025;-57
2022/10/15 10:21:29;;;;;;;;;;;;;;;23.88;100.00;97398.41;5016800;28;20029;-60
2022/10/15 10:23:56;;;;;;;23.02;3.35;;;;;;;24.04;100.00;97391.28;5016115;28;19925;-58
2022/10/15 10:26:22;;;;;;;21.23;3.45;;;;;;;24.10;100.00;97391.66;5012999;28;20074;-59
2022/10/15 10:28:53;;;;;;;17.90;3.30;;;;;;;24.20;100.00;97394.97;5015426;28;20408;-59
2022/10/15 10:31:31;;;;;;;23.38;3.80;;;;;;;23.90;100.00;97396.41;5011614;28;20037;-58
2022/10/15 10:34:00;;;;;;;20.98;3.53;;;;;;;23.99;100.00;97396.28;5012949;28;20526;-60
2022/10/15 10:36:30;;;;;;;25.85;4.03;;;;;;;23.51;100.00;97392.41;5013551;28;20034;-58
2022/10/15 10:39:04;;;;;;;24.63;4.25;;;;;;;23.84;100.00;97401.38;5015763;28;20033;-57
2022/10/15 10:41:49;;;;;;;21.20;4.07;;;;;;;23.97;100.00;97397.44;5013094;28;20067;-58
2022/10/15 10:44:35;;;;;;;18.85;3.60;;;;;;;23.68;100.00;97399.44;5012620;28;20077;-58
2022/10/15 10:47:06;;;;;;;22.02;3.65;;;;;;;24.29;100.00;97396.66;5012414;28;20034;-58
2022/10/15 10:49:36;;;;;;;21.47;3.50;;;;;;;24.03;100.00;97397.59;5010903;28;20033;-57
2022/10/15 10:52:02;;;;;;;20.40;3.72;;;;;;;23.93;100.00;97391.59;5013331;28;20278;-58
2022/10/15 10:54:30;;;;;;;18.23;3.03;;;;;;;23.67;100.00;97397.81;5013631;28;20057;-58
2022/10/15 10:56:58;;;;;;;26.40;3.90;;;;;;;24.66;100.00;97398.03;5013361;28;20049;-58
2022/10/15 10:59:34;;;;;;;21.83;3.30;;;;;;;24.70;100.00;97394.03;5016044;28;20025;-59
2022/10/15 11:02:02;;;;;;;27.73;4.15;;;;;;;24.77;100.00;97397.69;5010485;28;20419;-58
2022/10/15 11:04:34;;;;;;;20.48;3.35;;;;;;;25.84;100.00;97397.47;5012393;28;20021;-58
2022/10/15 11:07:18;;;;;;;30.58;4.20;;;;;;;24.82;100.00;97403.38;5014484;28;20707;-58
2022/10/15 11:10:07;;;;;;;27.35;4.03;;;;;;;24.70;100.00;97410.03;5015469;28;20025;-58
2022/10/15 11:12:53;;;;;;;36.97;4.95;;;;;;;25.89;100.00;97400.44;4995278;28;20042;-57
2022/10/15 11:15:47;;;;;;;24.80;3.80;;;;;;;26.22;100.00;97408.31;5009419;28;20083;-59
2022/10/15 11:18:52;;;;;;;24.73;3.55;;;;;;;24.71;100.00;97417.06;5009325;28;20030;-57
2022/10/15 11:21:23;;;;;;;31.63;4.30;;;;;;;24.60;100.00;97417.38;5009245;28;20045;-59
2022/10/15 11:24:03;;;;;;;28.43;4.07;;;;;;;24.10;100.00;97412.97;5013505;28;20064;-57
2022/10/15 11:26:59;;;;;;;24.17;3.35;;;;;;;24.57;100.00;97407.03;5008002;28;20037;-56
2022/10/15 11:29:49;;;;;;;19.65;3.13;;;;;;;24.32;100.00;97411.50;5012795;28;20026;-57
2022/10/15 11:32:20;;;;;;;25.05;3.60;;;;;;;24.37;100.00;97410.00;5005522;28;20041;-58